Portada
METAR-TAF:

METAR-TAF

Aeroports :

Àstrakhan, Rússia

latitud: 46-17N, longitud: 048-00-23E, altitud: 0 m

Observació

L'informe es va fer fa 44 minuts, a les 01:00 UTC
Vent 6 kt del Est
Temperatura -2°C
Humitat 86%
Pressió 1035 hPa
Visibilitat 10 km o més
sense núvols per sota de 1500 mi sense presència de cumulonimbus.

METAR: URWA 180100Z 08003MPS CAVOK M02/M04 Q1035 R09/010070 NOSIG RMK QFE778/1037

Hora: 05:44 (01:44 UTC)

Pronòstic

L'informe es va fer fa 2 hores i 44 minuts, a les 23:00 UTC
Pronòstic vàlid del 18 a les 00 UTC al 18 a les 09 UTC
Vent 6 kt del Est/Sud-Est amb ràfegues de 16 kt
Visibilitat: 3100 m
Cel ennuvolat a una alçada de 1100 ft
boirina
Temporalment
l' 18 a les 00 UTC al 18 a les 04 UTC
Visibilitat: 0300 m
Cel cobert a una alçada de 200 ft
boira gebradora

TAF: URWA 172300Z 1800/1809 12003G08MPS 3100 BR BKN011 TEMPO 1800/1804 0300 FZFG OVC002

Observacions i pronòstics meteorològics de més de 4000 aeroports (METAR i TAF).

Les estacions disponibles són els punts grocs i vermells al mapa.

Posi el ratolí al punt desitjat per veure el nom de l'estació.

Feu clic per veure les observacions i els pronòstics meteorològics.

Per canviar el mapa: feu clic els botons verds amb una creu de color negre per apropar; al botó verd amb un guió per allunyar la imatge; o en les fletxes verdes per a mapes adjacents.


METAR-TAF: